sensor_id;sensor_type;location;lat;lon;timestamp;temperature;humidity
65374;SHT31;52070;53.760;9.678;2023-06-10T00:01:39;13.81;86.58
65374;SHT31;52070;53.760;9.678;2023-06-10T00:04:06;13.78;86.31
65374;SHT31;52070;53.760;9.678;2023-06-10T00:06:33;13.80;86.39
65374;SHT31;52070;53.760;9.678;2023-06-10T00:09:02;13.77;86.19
65374;SHT31;52070;53.760;9.678;2023-06-10T00:11:31;13.77;86.08
65374;SHT31;52070;53.760;9.678;2023-06-10T00:13:58;13.74;85.80
65374;SHT31;52070;53.760;9.678;2023-06-10T00:16:27;13.80;86.05
65374;SHT31;52070;53.760;9.678;2023-06-10T00:18:54;13.77;86.09
65374;SHT31;52070;53.760;9.678;2023-06-10T00:21:27;13.69;85.93
65374;SHT31;52070;53.760;9.678;2023-06-10T00:23:54;13.59;86.10
65374;SHT31;52070;53.760;9.678;2023-06-10T00:26:21;13.56;86.08
65374;SHT31;52070;53.760;9.678;2023-06-10T00:28:48;13.52;86.52
65374;SHT31;52070;53.760;9.678;2023-06-10T00:31:15;13.50;86.69
65374;SHT31;52070;53.760;9.678;2023-06-10T00:33:44;13.47;86.65
65374;SHT31;52070;53.760;9.678;2023-06-10T00:36:11;13.44;87.02
65374;SHT31;52070;53.760;9.678;2023-06-10T00:38:38;13.53;87.18
65374;SHT31;52070;53.760;9.678;2023-06-10T00:41:06;13.49;86.97
65374;SHT31;52070;53.760;9.678;2023-06-10T00:43:33;13.47;87.02
65374;SHT31;52070;53.760;9.678;2023-06-10T00:46:00;13.44;86.87
65374;SHT31;52070;53.760;9.678;2023-06-10T00:48:27;13.44;87.06
65374;SHT31;52070;53.760;9.678;2023-06-10T00:50:56;13.39;87.06
65374;SHT31;52070;53.760;9.678;2023-06-10T00:53:23;13.35;87.03
65374;SHT31;52070;53.760;9.678;2023-06-10T00:55:51;13.33;87.42
65374;SHT31;52070;53.760;9.678;2023-06-10T00:58:19;13.32;87.56
65374;SHT31;52070;53.760;9.678;2023-06-10T01:00:46;13.29;87.53
65374;SHT31;52070;53.760;9.678;2023-06-10T01:03:13;13.22;87.50
65374;SHT31;52070;53.760;9.678;2023-06-10T01:05:43;13.18;87.55
65374;SHT31;52070;53.760;9.678;2023-06-10T01:08:17;13.08;87.64
65374;SHT31;52070;53.760;9.678;2023-06-10T01:10:50;13.08;87.79
65374;SHT31;52070;53.760;9.678;2023-06-10T01:13:19;13.05;87.85
65374;SHT31;52070;53.760;9.678;2023-06-10T01:15:49;13.05;87.95
65374;SHT31;52070;53.760;9.678;2023-06-10T01:18:16;13.00;87.97
65374;SHT31;52070;53.760;9.678;2023-06-10T01:20:44;12.91;88.02
65374;SHT31;52070;53.760;9.678;2023-06-10T01:23:13;12.82;88.03
65374;SHT31;52070;53.760;9.678;2023-06-10T01:25:43;12.82;88.20
65374;SHT31;52070;53.760;9.678;2023-06-10T01:28:14;12.77;88.37
65374;SHT31;52070;53.760;9.678;2023-06-10T01:30:48;12.78;88.63
65374;SHT31;52070;53.760;9.678;2023-06-10T01:33:18;12.72;88.71
65374;SHT31;52070;53.760;9.678;2023-06-10T01:35:47;12.65;88.63
65374;SHT31;52070;53.760;9.678;2023-06-10T01:38:15;12.74;88.69
65374;SHT31;52070;53.760;9.678;2023-06-10T01:40:44;12.68;88.75
65374;SHT31;52070;53.760;9.678;2023-06-10T01:43:12;12.75;88.69
65374;SHT31;52070;53.760;9.678;2023-06-10T01:45:39;12.71;88.59
65374;SHT31;52070;53.760;9.678;2023-06-10T01:48:06;12.67;88.44
65374;SHT31;52070;53.760;9.678;2023-06-10T01:50:33;12.61;88.51
65374;SHT31;52070;53.760;9.678;2023-06-10T01:53:00;12.59;88.49
65374;SHT31;52070;53.760;9.678;2023-06-10T01:55:28;12.64;88.52
65374;SHT31;52070;53.760;9.678;2023-06-10T01:57:55;12.69;88.85
65374;SHT31;52070;53.760;9.678;2023-06-10T02:00:22;12.75;88.98
65374;SHT31;52070;53.760;9.678;2023-06-10T02:02:49;12.85;89.27
65374;SHT31;52070;53.760;9.678;2023-06-10T02:05:16;12.95;89.57
65374;SHT31;52070;53.760;9.678;2023-06-10T02:07:44;13.05;89.59
65374;SHT31;52070;53.760;9.678;2023-06-10T02:10:10;13.10;89.67
65374;SHT31;52070;53.760;9.678;2023-06-10T02:12:39;13.18;89.57
65374;SHT31;52070;53.760;9.678;2023-06-10T02:15:06;13.29;89.51
65374;SHT31;52070;53.760;9.678;2023-06-10T02:17:33;13.35;89.46
65374;SHT31;52070;53.760;9.678;2023-06-10T02:20:00;13.44;89.48
65374;SHT31;52070;53.760;9.678;2023-06-10T02:22:29;13.42;89.27
65374;SHT31;52070;53.760;9.678;2023-06-10T02:24:56;13.50;89.07
65374;SHT31;52070;53.760;9.678;2023-06-10T02:27:23;13.52;88.94
65374;SHT31;52070;53.760;9.678;2023-06-10T02:29:52;13.54;88.77
65374;SHT31;52070;53.760;9.678;2023-06-10T02:32:19;13.62;88.85
65374;SHT31;52070;53.760;9.678;2023-06-10T02:34:46;13.63;88.84
65374;SHT31;52070;53.760;9.678;2023-06-10T02:37:13;13.70;88.77
65374;SHT31;52070;53.760;9.678;2023-06-10T02:39:40;13.77;88.54
65374;SHT31;52070;53.760;9.678;2023-06-10T02:42:07;13.75;88.22
65374;SHT31;52070;53.760;9.678;2023-06-10T02:44:34;13.74;88.01
65374;SHT31;52070;53.760;9.678;2023-06-10T02:47:03;13.74;87.86
65374;SHT31;52070;53.760;9.678;2023-06-10T02:49:30;13.80;87.78
65374;SHT31;52070;53.760;9.678;2023-06-10T02:51:57;13.87;87.53
65374;SHT31;52070;53.760;9.678;2023-06-10T02:54:24;13.85;87.42
65374;SHT31;52070;53.760;9.678;2023-06-10T02:56:52;13.88;87.38
65374;SHT31;52070;53.760;9.678;2023-06-10T02:59:21;13.94;87.31
65374;SHT31;52070;53.760;9.678;2023-06-10T03:01:48;13.94;87.18
65374;SHT31;52070;53.760;9.678;2023-06-10T03:04:16;14.00;87.12
65374;SHT31;52070;53.760;9.678;2023-06-10T03:06:44;14.05;86.86
65374;SHT31;52070;53.760;9.678;2023-06-10T03:09:12;14.08;86.71
65374;SHT31;52070;53.760;9.678;2023-06-10T03:11:40;14.18;86.61
65374;SHT31;52070;53.760;9.678;2023-06-10T03:14:07;14.13;86.25
65374;SHT31;52070;53.760;9.678;2023-06-10T03:16:34;14.11;86.26
65374;SHT31;52070;53.760;9.678;2023-06-10T03:19:01;14.11;86.18
65374;SHT31;52070;53.760;9.678;2023-06-10T03:21:29;14.10;86.13
65374;SHT31;52070;53.760;9.678;2023-06-10T03:23:57;14.11;86.10
65374;SHT31;52070;53.760;9.678;2023-06-10T03:26:26;14.10;86.22
65374;SHT31;52070;53.760;9.678;2023-06-10T03:28:53;14.03;86.08
65374;SHT31;52070;53.760;9.678;2023-06-10T03:31:20;14.03;85.92
65374;SHT31;52070;53.760;9.678;2023-06-10T03:33:47;14.07;86.05
65374;SHT31;52070;53.760;9.678;2023-06-10T03:36:14;13.98;86.05
65374;SHT31;52070;53.760;9.678;2023-06-10T03:38:42;14.04;86.03
65374;SHT31;52070;53.760;9.678;2023-06-10T03:41:09;14.00;85.95
65374;SHT31;52070;53.760;9.678;2023-06-10T03:43:37;13.91;86.00
65374;SHT31;52070;53.760;9.678;2023-06-10T03:46:04;13.91;86.08
65374;SHT31;52070;53.760;9.678;2023-06-10T03:48:31;13.91;86.21
65374;SHT31;52070;53.760;9.678;2023-06-10T03:50:58;13.91;86.05
65374;SHT31;52070;53.760;9.678;2023-06-10T03:53:25;13.87;85.99
65374;SHT31;52070;53.760;9.678;2023-06-10T03:55:53;13.88;86.00
65374;SHT31;52070;53.760;9.678;2023-06-10T03:58:21;13.88;86.09
65374;SHT31;52070;53.760;9.678;2023-06-10T04:00:48;13.87;86.09
65374;SHT31;52070;53.760;9.678;2023-06-10T04:03:15;13.93;86.14
65374;SHT31;52070;53.760;9.678;2023-06-10T04:05:42;13.91;86.07
65374;SHT31;52070;53.760;9.678;2023-06-10T04:08:09;13.94;86.01
65374;SHT31;52070;53.760;9.678;2023-06-10T04:10:36;13.91;85.93
65374;SHT31;52070;53.760;9.678;2023-06-10T04:13:04;14.04;85.84
65374;SHT31;52070;53.760;9.678;2023-06-10T04:15:31;14.18;85.48
65374;SHT31;52070;53.760;9.678;2023-06-10T04:17:59;14.14;85.28
65374;SHT31;52070;53.760;9.678;2023-06-10T04:20:28;14.07;85.33
65374;SHT31;52070;53.760;9.678;2023-06-10T04:22:55;14.05;85.48
65374;SHT31;52070;53.760;9.678;2023-06-10T04:25:22;14.07;85.61
65374;SHT31;52070;53.760;9.678;2023-06-10T04:27:50;14.18;85.51
65374;SHT31;52070;53.760;9.678;2023-06-10T04:30:18;14.24;85.15
65374;SHT31;52070;53.760;9.678;2023-06-10T04:32:45;14.25;85.11
65374;SHT31;52070;53.760;9.678;2023-06-10T04:35:13;14.26;85.03
65374;SHT31;52070;53.760;9.678;2023-06-10T04:37:40;14.41;84.93
65374;SHT31;52070;53.760;9.678;2023-06-10T04:40:08;14.42;84.70
65374;SHT31;52070;53.760;9.678;2023-06-10T04:42:35;14.46;84.58
65374;SHT31;52070;53.760;9.678;2023-06-10T04:45:02;14.54;84.32
65374;SHT31;52070;53.760;9.678;2023-06-10T04:47:31;14.61;84.00
65374;SHT31;52070;53.760;9.678;2023-06-10T04:49:59;14.73;83.86
65374;SHT31;52070;53.760;9.678;2023-06-10T04:52:26;14.75;83.82
65374;SHT31;52070;53.760;9.678;2023-06-10T04:54:53;14.73;83.94
65374;SHT31;52070;53.760;9.678;2023-06-10T04:57:20;14.85;83.29
65374;SHT31;52070;53.760;9.678;2023-06-10T04:59:48;14.85;83.10
65374;SHT31;52070;53.760;9.678;2023-06-10T05:02:15;14.88;83.16
65374;SHT31;52070;53.760;9.678;2023-06-10T05:04:43;14.95;83.02
65374;SHT31;52070;53.760;9.678;2023-06-10T05:07:10;14.99;82.85
65374;SHT31;52070;53.760;9.678;2023-06-10T05:09:37;14.93;82.66
65374;SHT31;52070;53.760;9.678;2023-06-10T05:12:05;14.98;82.60
65374;SHT31;52070;53.760;9.678;2023-06-10T05:14:32;15.02;82.25
65374;SHT31;52070;53.760;9.678;2023-06-10T05:16:59;14.99;82.38
65374;SHT31;52070;53.760;9.678;2023-06-10T05:19:26;15.03;82.20
65374;SHT31;52070;53.760;9.678;2023-06-10T05:21:54;15.13;81.72
65374;SHT31;52070;53.760;9.678;2023-06-10T05:24:21;15.27;81.58
65374;SHT31;52070;53.760;9.678;2023-06-10T05:26:48;15.34;81.54
65374;SHT31;52070;53.760;9.678;2023-06-10T05:29:15;15.46;81.08
65374;SHT31;52070;53.760;9.678;2023-06-10T05:31:42;15.50;80.69
65374;SHT31;52070;53.760;9.678;2023-06-10T05:34:09;15.64;80.71
65374;SHT31;52070;53.760;9.678;2023-06-10T05:36:36;15.77;79.78
65374;SHT31;52070;53.760;9.678;2023-06-10T05:39:05;15.77;79.75
65374;SHT31;52070;53.760;9.678;2023-06-10T05:41:32;15.85;79.05
65374;SHT31;52070;53.760;9.678;2023-06-10T05:43:58;15.87;78.46
65374;SHT31;52070;53.760;9.678;2023-06-10T05:46:25;15.85;78.83
65374;SHT31;52070;53.760;9.678;2023-06-10T05:48:52;15.97;79.06
65374;SHT31;52070;53.760;9.678;2023-06-10T05:51:19;16.08;78.23
65374;SHT31;52070;53.760;9.678;2023-06-10T05:53:46;16.15;78.09
65374;SHT31;52070;53.760;9.678;2023-06-10T05:56:15;16.19;77.82
65374;SHT31;52070;53.760;9.678;2023-06-10T05:58:42;16.26;77.49
65374;SHT31;52070;53.760;9.678;2023-06-10T06:01:09;16.32;76.94
65374;SHT31;52070;53.760;9.678;2023-06-10T06:03:35;16.33;77.78
65374;SHT31;52070;53.760;9.678;2023-06-10T06:06:03;16.41;77.98
65374;SHT31;52070;53.760;9.678;2023-06-10T06:08:30;16.53;77.47
65374;SHT31;52070;53.760;9.678;2023-06-10T06:10:57;16.56;77.25
65374;SHT31;52070;53.760;9.678;2023-06-10T06:13:25;16.63;76.50
65374;SHT31;52070;53.760;9.678;2023-06-10T06:15:52;16.66;75.86
65374;SHT31;52070;53.760;9.678;2023-06-10T06:18:19;16.67;75.59
65374;SHT31;52070;53.760;9.678;2023-06-10T06:20:46;16.73;75.42
65374;SHT31;52070;53.760;9.678;2023-06-10T06:23:13;16.77;75.65
65374;SHT31;52070;53.760;9.678;2023-06-10T06:25:40;16.89;75.53
65374;SHT31;52070;53.760;9.678;2023-06-10T06:28:07;17.03;74.82
65374;SHT31;52070;53.760;9.678;2023-06-10T06:30:36;17.11;75.75
65374;SHT31;52070;53.760;9.678;2023-06-10T06:33:03;17.27;74.66
65374;SHT31;52070;53.760;9.678;2023-06-10T06:35:30;17.28;73.30
65374;SHT31;52070;53.760;9.678;2023-06-10T06:37:57;17.26;73.78
65374;SHT31;52070;53.760;9.678;2023-06-10T06:40:25;17.20;73.66
65374;SHT31;52070;53.760;9.678;2023-06-10T06:42:52;17.24;74.21
65374;SHT31;52070;53.760;9.678;2023-06-10T06:45:19;17.31;73.55
65374;SHT31;52070;53.760;9.678;2023-06-10T06:47:48;17.26;73.31
65374;SHT31;52070;53.760;9.678;2023-06-10T06:50:15;17.21;73.38
65374;SHT31;52070;53.760;9.678;2023-06-10T06:52:42;17.26;73.59
65374;SHT31;52070;53.760;9.678;2023-06-10T06:55:09;17.27;74.49
65374;SHT31;52070;53.760;9.678;2023-06-10T06:57:36;17.37;74.44
65374;SHT31;52070;53.760;9.678;2023-06-10T07:00:04;17.47;73.51
65374;SHT31;52070;53.760;9.678;2023-06-10T07:02:31;17.65;73.06
65374;SHT31;52070;53.760;9.678;2023-06-10T07:05:00;17.68;72.72
65374;SHT31;52070;53.760;9.678;2023-06-10T07:07:27;17.72;74.15
65374;SHT31;52070;53.760;9.678;2023-06-10T07:09:54;17.68;73.33
65374;SHT31;52070;53.760;9.678;2023-06-10T07:12:22;17.68;73.46
65374;SHT31;52070;53.760;9.678;2023-06-10T07:14:49;17.72;73.47
65374;SHT31;52070;53.760;9.678;2023-06-10T07:17:17;17.74;73.13
65374;SHT31;52070;53.760;9.678;2023-06-10T07:19:45;17.85;72.96
65374;SHT31;52070;53.760;9.678;2023-06-10T07:22:14;17.92;73.29
65374;SHT31;52070;53.760;9.678;2023-06-10T07:24:41;18.09;71.92
65374;SHT31;52070;53.760;9.678;2023-06-10T07:27:08;18.12;72.55
65374;SHT31;52070;53.760;9.678;2023-06-10T07:29:35;18.25;72.20
65374;SHT31;52070;53.760;9.678;2023-06-10T07:32:03;18.39;71.34
65374;SHT31;52070;53.760;9.678;2023-06-10T07:34:30;18.52;70.91
65374;SHT31;52070;53.760;9.678;2023-06-10T07:36:57;18.45;71.01
65374;SHT31;52070;53.760;9.678;2023-06-10T07:39:25;18.39;71.76
65374;SHT31;52070;53.760;9.678;2023-06-10T07:41:52;18.50;71.13
65374;SHT31;52070;53.760;9.678;2023-06-10T07:44:22;18.53;70.47
65374;SHT31;52070;53.760;9.678;2023-06-10T07:46:49;18.56;70.31
65374;SHT31;52070;53.760;9.678;2023-06-10T07:49:16;18.56;70.88
65374;SHT31;52070;53.760;9.678;2023-06-10T07:51:43;18.70;72.07
65374;SHT31;52070;53.760;9.678;2023-06-10T07:54:10;18.77;70.34
65374;SHT31;52070;53.760;9.678;2023-06-10T07:56:39;18.87;70.56
65374;SHT31;52070;53.760;9.678;2023-06-10T07:59:06;19.06;70.16
65374;SHT31;52070;53.760;9.678;2023-06-10T08:01:33;19.15;70.23
65374;SHT31;52070;53.760;9.678;2023-06-10T08:04:01;19.27;68.80
65374;SHT31;52070;53.760;9.678;2023-06-10T08:06:30;19.17;69.15
65374;SHT31;52070;53.760;9.678;2023-06-10T08:08:57;19.08;69.70
65374;SHT31;52070;53.760;9.678;2023-06-10T08:11:24;19.04;70.09
65374;SHT31;52070;53.760;9.678;2023-06-10T08:13:55;19.04;69.86
65374;SHT31;52070;53.760;9.678;2023-06-10T08:16:22;19.10;69.60
65374;SHT31;52070;53.760;9.678;2023-06-10T08:18:49;19.17;70.47
65374;SHT31;52070;53.760;9.678;2023-06-10T08:21:16;19.36;70.07
65374;SHT31;52070;53.760;9.678;2023-06-10T08:23:43;19.54;69.38
65374;SHT31;52070;53.760;9.678;2023-06-10T08:26:11;19.68;68.54
65374;SHT31;52070;53.760;9.678;2023-06-10T08:28:38;19.73;68.52
65374;SHT31;52070;53.760;9.678;2023-06-10T08:31:06;19.73;67.55
65374;SHT31;52070;53.760;9.678;2023-06-10T08:33:33;19.78;68.25
65374;SHT31;52070;53.760;9.678;2023-06-10T08:36:01;19.90;68.15
65374;SHT31;52070;53.760;9.678;2023-06-10T08:38:28;20.00;67.85
65374;SHT31;52070;53.760;9.678;2023-06-10T08:40:56;20.16;67.89
65374;SHT31;52070;53.760;9.678;2023-06-10T08:43:31;20.30;66.25
65374;SHT31;52070;53.760;9.678;2023-06-10T08:46:00;20.39;66.77
65374;SHT31;52070;53.760;9.678;2023-06-10T08:48:30;20.53;66.38
65374;SHT31;52070;53.760;9.678;2023-06-10T08:50:57;20.60;65.37
65374;SHT31;52070;53.760;9.678;2023-06-10T08:53:26;20.70;66.37
65374;SHT31;52070;53.760;9.678;2023-06-10T08:55:58;20.83;66.10
65374;SHT31;52070;53.760;9.678;2023-06-10T08:58:28;21.07;65.28
65374;SHT31;52070;53.760;9.678;2023-06-10T09:00:55;21.19;64.30
65374;SHT31;52070;53.760;9.678;2023-06-10T09:03:23;21.25;63.02
65374;SHT31;52070;53.760;9.678;2023-06-10T09:05:52;21.24;63.38
65374;SHT31;52070;53.760;9.678;2023-06-10T09:08:21;21.27;63.36
65374;SHT31;52070;53.760;9.678;2023-06-10T09:10:48;21.38;64.99
65374;SHT31;52070;53.760;9.678;2023-06-10T09:13:15;21.32;62.76
65374;SHT31;52070;53.760;9.678;2023-06-10T09:15:44;21.48;63.23
65374;SHT31;52070;53.760;9.678;2023-06-10T09:18:11;21.73;63.52
65374;SHT31;52070;53.760;9.678;2023-06-10T09:20:39;21.93;62.47
65374;SHT31;52070;53.760;9.678;2023-06-10T09:23:07;22.09;61.28
65374;SHT31;52070;53.760;9.678;2023-06-10T09:25:35;22.25;61.32
65374;SHT31;52070;53.760;9.678;2023-06-10T09:28:04;22.39;60.02
65374;SHT31;52070;53.760;9.678;2023-06-10T09:30:32;22.48;59.31
65374;SHT31;52070;53.760;9.678;2023-06-10T09:33:00;22.57;59.82
65374;SHT31;52070;53.760;9.678;2023-06-10T09:35:29;22.63;58.90
65374;SHT31;52070;53.760;9.678;2023-06-10T09:37:58;22.90;59.31
65374;SHT31;52070;53.760;9.678;2023-06-10T09:40:26;23.08;58.47
65374;SHT31;52070;53.760;9.678;2023-06-10T09:42:56;23.32;58.45
65374;SHT31;52070;53.760;9.678;2023-06-10T09:45:23;23.50;56.75
65374;SHT31;52070;53.760;9.678;2023-06-10T09:47:53;23.60;56.28
65374;SHT31;52070;53.760;9.678;2023-06-10T09:50:21;23.83;55.31
65374;SHT31;52070;53.760;9.678;2023-06-10T09:52:48;23.93;55.58
65374;SHT31;52070;53.760;9.678;2023-06-10T09:55:15;24.06;55.94
65374;SHT31;52070;53.760;9.678;2023-06-10T09:57:43;24.24;55.47
65374;SHT31;52070;53.760;9.678;2023-06-10T10:00:14;24.51;55.46
65374;SHT31;52070;53.760;9.678;2023-06-10T10:02:46;24.68;53.55
65374;SHT31;52070;53.760;9.678;2023-06-10T10:05:14;24.98;54.69
65374;SHT31;52070;53.760;9.678;2023-06-10T10:07:41;25.06;52.15
65374;SHT31;52070;53.760;9.678;2023-06-10T10:10:09;25.18;53.96
65374;SHT31;52070;53.760;9.678;2023-06-10T10:12:38;25.50;52.27
65374;SHT31;52070;53.760;9.678;2023-06-10T10:15:09;25.45;50.43
65374;SHT31;52070;53.760;9.678;2023-06-10T10:17:40;25.28;51.95
65374;SHT31;52070;53.760;9.678;2023-06-10T10:20:13;25.30;51.42
65374;SHT31;52070;53.760;9.678;2023-06-10T10:22:43;25.40;54.43
65374;SHT31;52070;53.760;9.678;2023-06-10T10:25:12;25.77;52.34
65374;SHT31;52070;53.760;9.678;2023-06-10T10:27:44;26.04;51.73
65374;SHT31;52070;53.760;9.678;2023-06-10T10:30:14;26.14;50.69
65374;SHT31;52070;53.760;9.678;2023-06-10T10:32:52;26.32;50.00
65374;SHT31;52070;53.760;9.678;2023-06-10T10:35:23;26.35;49.13
65374;SHT31;52070;53.760;9.678;2023-06-10T10:37:51;26.59;49.86
65374;SHT31;52070;53.760;9.678;2023-06-10T10:40:19;26.79;48.99
65374;SHT31;52070;53.760;9.678;2023-06-10T10:42:47;26.89;49.09
65374;SHT31;52070;53.760;9.678;2023-06-10T10:45:16;26.96;47.73
65374;SHT31;52070;53.760;9.678;2023-06-10T10:47:45;27.03;49.28
65374;SHT31;52070;53.760;9.678;2023-06-10T10:50:14;27.33;49.86
65374;SHT31;52070;53.760;9.678;2023-06-10T10:52:52;27.49;46.67
65374;SHT31;52070;53.760;9.678;2023-06-10T10:55:20;27.30;45.93
65374;SHT31;52070;53.760;9.678;2023-06-10T10:57:54;27.22;46.87
65374;SHT31;52070;53.760;9.678;2023-06-10T11:00:27;27.32;46.76
65374;SHT31;52070;53.760;9.678;2023-06-10T11:02:58;27.45;48.49
65374;SHT31;52070;53.760;9.678;2023-06-10T11:05:31;27.49;47.23
65374;SHT31;52070;53.760;9.678;2023-06-10T11:07:59;27.46;45.72
65374;SHT31;52070;53.760;9.678;2023-06-10T11:10:29;27.43;46.44
65374;SHT31;52070;53.760;9.678;2023-06-10T11:12:56;27.43;47.11
65374;SHT31;52070;53.760;9.678;2023-06-10T11:15:26;27.66;45.97
65374;SHT31;52070;53.760;9.678;2023-06-10T11:18:13;27.77;46.12
65374;SHT31;52070;53.760;9.678;2023-06-10T11:21:00;27.93;46.32
65374;SHT31;52070;53.760;9.678;2023-06-10T11:23:32;28.00;45.96
65374;SHT31;52070;53.760;9.678;2023-06-10T11:26:20;28.20;46.08
65374;SHT31;52070;53.760;9.678;2023-06-10T11:29:17;28.10;44.41
65374;SHT31;52070;53.760;9.678;2023-06-10T11:31:49;28.22;45.31
65374;SHT31;52070;53.760;9.678;2023-06-10T11:34:23;28.28;44.26
65374;SHT31;52070;53.760;9.678;2023-06-10T11:36:53;28.29;44.98
65374;SHT31;52070;53.760;9.678;2023-06-10T11:39:21;28.35;44.97
65374;SHT31;52070;53.760;9.678;2023-06-10T11:41:50;28.59;44.01
65374;SHT31;52070;53.760;9.678;2023-06-10T11:44:17;28.68;44.54
65374;SHT31;52070;53.760;9.678;2023-06-10T11:46:45;28.42;43.68
65374;SHT31;52070;53.760;9.678;2023-06-10T11:49:14;28.53;43.97
65374;SHT31;52070;53.760;9.678;2023-06-10T11:51:41;28.62;45.12
65374;SHT31;52070;53.760;9.678;2023-06-10T11:54:15;28.83;44.42
65374;SHT31;52070;53.760;9.678;2023-06-10T11:56:43;28.89;45.39
65374;SHT31;52070;53.760;9.678;2023-06-10T11:59:10;29.16;44.37
65374;SHT31;52070;53.760;9.678;2023-06-10T12:01:42;29.22;42.12
65374;SHT31;52070;53.760;9.678;2023-06-10T12:04:10;28.79;43.17
65374;SHT31;52070;53.760;9.678;2023-06-10T12:06:42;28.91;44.08
65374;SHT31;52070;53.760;9.678;2023-06-10T12:09:14;28.85;43.04
65374;SHT31;52070;53.760;9.678;2023-06-10T12:11:42;29.06;42.82
65374;SHT31;52070;53.760;9.678;2023-06-10T12:14:10;29.07;43.30
65374;SHT31;52070;53.760;9.678;2023-06-10T12:16:37;29.05;43.30
65374;SHT31;52070;53.760;9.678;2023-06-10T12:19:04;29.02;44.34
65374;SHT31;52070;53.760;9.678;2023-06-10T12:21:33;29.33;44.85
65374;SHT31;52070;53.760;9.678;2023-06-10T12:24:05;29.31;43.15
65374;SHT31;52070;53.760;9.678;2023-06-10T12:26:40;29.09;45.55
65374;SHT31;52070;53.760;9.678;2023-06-10T12:29:20;29.09;45.41
65374;SHT31;52070;53.760;9.678;2023-06-10T12:31:53;29.33;43.93
65374;SHT31;52070;53.760;9.678;2023-06-10T12:34:20;29.20;44.29
65374;SHT31;52070;53.760;9.678;2023-06-10T12:36:54;29.05;44.28
65374;SHT31;52070;53.760;9.678;2023-06-10T12:39:22;28.99;44.35
65374;SHT31;52070;53.760;9.678;2023-06-10T12:41:51;28.79;44.93
65374;SHT31;52070;53.760;9.678;2023-06-10T12:44:18;28.91;46.55
65374;SHT31;52070;53.760;9.678;2023-06-10T12:46:45;29.17;45.50
65374;SHT31;52070;53.760;9.678;2023-06-10T12:49:19;29.12;45.06
65374;SHT31;52070;53.760;9.678;2023-06-10T12:51:47;29.03;45.10
65374;SHT31;52070;53.760;9.678;2023-06-10T12:54:14;29.31;45.03
65374;SHT31;52070;53.760;9.678;2023-06-10T12:56:42;29.56;44.00
65374;SHT31;52070;53.760;9.678;2023-06-10T12:59:10;29.64;43.87
65374;SHT31;52070;53.760;9.678;2023-06-10T13:01:37;29.82;42.83
65374;SHT31;52070;53.760;9.678;2023-06-10T13:04:05;29.87;44.10
65374;SHT31;52070;53.760;9.678;2023-06-10T13:06:32;29.56;44.31
65374;SHT31;52070;53.760;9.678;2023-06-10T13:09:02;29.30;43.88
65374;SHT31;52070;53.760;9.678;2023-06-10T13:11:29;29.43;44.94
65374;SHT31;52070;53.760;9.678;2023-06-10T13:13:58;29.43;43.28
65374;SHT31;52070;53.760;9.678;2023-06-10T13:16:25;29.34;44.23
65374;SHT31;52070;53.760;9.678;2023-06-10T13:18:53;29.42;44.05
65374;SHT31;52070;53.760;9.678;2023-06-10T13:21:20;29.60;43.28
65374;SHT31;52070;53.760;9.678;2023-06-10T13:23:47;29.76;44.11
65374;SHT31;52070;53.760;9.678;2023-06-10T13:26:14;29.94;42.13
65374;SHT31;52070;53.760;9.678;2023-06-10T13:28:42;30.09;42.45
65374;SHT31;52070;53.760;9.678;2023-06-10T13:31:10;30.05;43.46
65374;SHT31;52070;53.760;9.678;2023-06-10T13:33:37;30.21;42.88
65374;SHT31;52070;53.760;9.678;2023-06-10T13:36:04;30.27;42.47
65374;SHT31;52070;53.760;9.678;2023-06-10T13:38:31;30.22;42.78
65374;SHT31;52070;53.760;9.678;2023-06-10T13:40:58;30.11;42.37
65374;SHT31;52070;53.760;9.678;2023-06-10T13:43:25;30.19;43.22
65374;SHT31;52070;53.760;9.678;2023-06-10T13:45:52;30.15;42.77
65374;SHT31;52070;53.760;9.678;2023-06-10T13:48:21;30.22;43.57
65374;SHT31;52070;53.760;9.678;2023-06-10T13:50:48;30.33;43.17
65374;SHT31;52070;53.760;9.678;2023-06-10T13:53:15;30.42;42.59
65374;SHT31;52070;53.760;9.678;2023-06-10T13:55:42;30.35;41.61
65374;SHT31;52070;53.760;9.678;2023-06-10T13:58:09;30.11;42.60
65374;SHT31;52070;53.760;9.678;2023-06-10T14:00:35;29.81;42.93
65374;SHT31;52070;53.760;9.678;2023-06-10T14:03:03;29.68;44.61
65374;SHT31;52070;53.760;9.678;2023-06-10T14:05:31;29.51;44.15
65374;SHT31;52070;53.760;9.678;2023-06-10T14:07:59;29.44;43.49
65374;SHT31;52070;53.760;9.678;2023-06-10T14:10:25;29.34;45.18
65374;SHT31;52070;53.760;9.678;2023-06-10T14:12:52;29.50;43.27
65374;SHT31;52070;53.760;9.678;2023-06-10T14:15:19;29.63;44.35
65374;SHT31;52070;53.760;9.678;2023-06-10T14:17:46;29.70;44.06
65374;SHT31;52070;53.760;9.678;2023-06-10T14:20:13;29.68;43.97
65374;SHT31;52070;53.760;9.678;2023-06-10T14:22:42;29.71;43.86
65374;SHT31;52070;53.760;9.678;2023-06-10T14:25:09;29.80;43.23
65374;SHT31;52070;53.760;9.678;2023-06-10T14:27:36;29.57;43.56
65374;SHT31;52070;53.760;9.678;2023-06-10T14:30:04;29.56;44.39
65374;SHT31;52070;53.760;9.678;2023-06-10T14:32:31;29.49;44.12
65374;SHT31;52070;53.760;9.678;2023-06-10T14:34:58;29.33;45.48
65374;SHT31;52070;53.760;9.678;2023-06-10T14:37:25;29.17;45.04
65374;SHT31;52070;53.760;9.678;2023-06-10T14:39:54;29.17;46.26
65374;SHT31;52070;53.760;9.678;2023-06-10T14:42:21;29.13;44.58
65374;SHT31;52070;53.760;9.678;2023-06-10T14:44:47;29.10;44.44
65374;SHT31;52070;53.760;9.678;2023-06-10T14:47:15;28.92;45.11
65374;SHT31;52070;53.760;9.678;2023-06-10T14:49:42;28.85;46.20
65374;SHT31;52070;53.760;9.678;2023-06-10T14:52:09;29.07;44.86
65374;SHT31;52070;53.760;9.678;2023-06-10T14:54:36;29.20;44.69
65374;SHT31;52070;53.760;9.678;2023-06-10T14:57:05;29.14;45.42
65374;SHT31;52070;53.760;9.678;2023-06-10T14:59:33;29.24;44.32
65374;SHT31;52070;53.760;9.678;2023-06-10T15:02:00;29.09;44.58
65374;SHT31;52070;53.760;9.678;2023-06-10T15:04:27;28.92;44.66
65374;SHT31;52070;53.760;9.678;2023-06-10T15:06:54;28.79;45.46
65374;SHT31;52070;53.760;9.678;2023-06-10T15:09:21;28.82;45.06
65374;SHT31;52070;53.760;9.678;2023-06-10T15:11:48;28.83;44.73
65374;SHT31;52070;53.760;9.678;2023-06-10T15:14:16;29.02;45.23
65374;SHT31;52070;53.760;9.678;2023-06-10T15:16:43;29.23;43.94
65374;SHT31;52070;53.760;9.678;2023-06-10T15:19:16;29.27;44.46
65374;SHT31;52070;53.760;9.678;2023-06-10T15:21:43;29.13;44.84
65374;SHT31;52070;53.760;9.678;2023-06-10T15:24:10;29.03;43.75
65374;SHT31;52070;53.760;9.678;2023-06-10T15:26:37;28.83;44.30
65374;SHT31;52070;53.760;9.678;2023-06-10T15:29:04;28.55;45.08
65374;SHT31;52070;53.760;9.678;2023-06-10T15:31:33;28.55;45.21
65374;SHT31;52070;53.760;9.678;2023-06-10T15:34:00;28.48;45.76
65374;SHT31;52070;53.760;9.678;2023-06-10T15:36:27;28.44;45.17